createdAt,value
2018-02-23T00:01:04.828Z,12.73
2018-02-23T00:06:08.692Z,16.03
2018-02-23T00:11:11.788Z,13.60
2018-02-23T00:16:14.886Z,12.47
2018-02-23T00:21:19.331Z,11.93
2018-02-23T00:26:23.205Z,11.87
2018-02-23T00:31:26.712Z,11.63
2018-02-23T00:36:29.811Z,11.80
2018-02-23T00:41:33.741Z,11.63
2018-02-23T00:46:37.626Z,12.40
2018-02-23T00:51:40.719Z,11.67
2018-02-23T00:56:43.891Z,12.43
2018-02-23T01:01:47.747Z,11.37
2018-02-23T01:06:50.832Z,12.43
2018-02-23T01:11:53.924Z,12.90
2018-02-23T01:16:57.776Z,13.10
2018-02-23T01:22:02.235Z,12.57
2018-02-23T01:27:05.347Z,11.43
2018-02-23T01:32:10.076Z,11.90
2018-02-23T01:37:13.179Z,11.80
2018-02-23T01:42:17.788Z,12.30
2018-02-23T01:47:21.655Z,11.87
2018-02-23T01:52:24.765Z,12.90
2018-02-23T01:57:29.000Z,11.33
2018-02-23T02:02:32.502Z,12.50
2018-02-23T02:07:36.940Z,12.07
2018-02-23T02:12:40.810Z,11.63
2018-02-23T02:17:45.264Z,13.10
2018-02-23T02:22:49.709Z,12.43
2018-02-23T02:27:54.156Z,12.80
2018-02-23T02:32:58.397Z,11.67
2018-02-23T02:38:02.832Z,12.40
2018-02-23T02:43:07.296Z,12.50
2018-02-23T02:48:10.401Z,14.33
2018-02-23T02:58:18.989Z,13.73
2018-02-23T03:03:23.415Z,14.10
2018-02-23T03:08:27.858Z,13.93
2018-02-23T03:13:32.292Z,13.00
2018-02-23T03:18:36.885Z,13.00
2018-02-23T03:23:41.105Z,12.73
2018-02-23T03:28:44.192Z,13.07
2018-02-23T03:33:49.888Z,11.80
2018-02-23T03:38:54.975Z,11.97
2018-02-23T03:43:58.065Z,13.00
2018-02-23T03:49:01.556Z,15.17
2018-02-23T03:54:05.045Z,14.93
2018-02-23T03:59:08.163Z,13.17
2018-02-23T04:04:11.252Z,14.47
2018-02-23T04:09:15.699Z,15.27
2018-02-23T04:14:19.941Z,14.23
2018-02-23T04:19:27.881Z,13.70
2018-02-23T04:24:32.315Z,13.97
2018-02-23T04:29:36.766Z,12.67
2018-02-23T04:34:41.225Z,13.93
2018-02-23T04:39:44.726Z,13.87
2018-02-23T04:44:47.824Z,13.53
2018-02-23T04:49:51.300Z,13.83
2018-02-23T04:54:56.280Z,13.93
2018-02-23T05:00:00.880Z,15.15
2018-02-23T05:05:05.128Z,15.27
2018-02-23T05:10:08.985Z,13.07
2018-02-23T05:15:12.085Z,14.53
2018-02-23T05:20:15.178Z,15.37
2018-02-23T05:25:18.277Z,15.10
2018-02-23T05:30:22.743Z,14.30
2018-02-23T05:35:25.834Z,14.40
2018-02-23T05:40:28.924Z,14.20
2018-02-23T05:45:33.372Z,13.80
2018-02-23T05:50:37.822Z,13.73
2018-02-23T05:55:42.063Z,16.13
2018-02-23T06:00:46.504Z,15.77
2018-02-23T06:05:51.117Z,14.13
2018-02-23T06:10:55.567Z,15.60
2018-02-23T06:16:05.827Z,14.27
2018-02-23T06:21:10.442Z,15.37
2018-02-23T06:26:14.324Z,15.15
2018-02-23T06:31:17.449Z,14.23
2018-02-23T06:36:21.883Z,14.73
2018-02-23T06:41:24.980Z,14.33
2018-02-23T06:46:28.848Z,16.70
2018-02-23T06:51:32.707Z,15.67
2018-02-23T06:56:36.556Z,16.27
2018-02-23T07:01:41.034Z,16.48
2018-02-23T07:06:45.680Z,16.50
2018-02-23T07:11:50.119Z,17.37
2018-02-23T07:16:54.340Z,19.17
2018-02-23T07:21:57.428Z,17.50
2018-02-23T07:27:00.511Z,16.40
2018-02-23T07:32:04.963Z,17.08
2018-02-23T07:37:10.347Z,18.03
2018-02-23T07:42:13.836Z,16.60
2018-02-23T07:47:17.676Z,16.50
2018-02-23T07:52:21.896Z,30.67
2018-02-23T07:57:25.752Z,16.27
2018-02-23T08:02:28.824Z,11.07
2018-02-23T08:07:32.536Z,10.93
2018-02-23T08:12:36.968Z,8.60
2018-02-23T08:17:40.807Z,6.97
2018-02-23T08:22:43.875Z,7.33
2018-02-23T08:27:48.312Z,6.13
2018-02-23T08:32:52.520Z,6.63
2018-02-23T08:37:55.999Z,6.83
2018-02-23T08:42:59.072Z,7.10
2018-02-23T08:48:02.139Z,6.30
2018-02-23T08:53:05.227Z,6.50
2018-02-23T08:58:16.586Z,6.63
2018-02-23T09:03:20.777Z,6.83
2018-02-23T09:08:23.860Z,6.57
2018-02-23T09:13:26.931Z,6.73
2018-02-23T09:18:30.410Z,6.60
2018-02-23T09:23:34.254Z,7.17
2018-02-23T09:28:38.464Z,7.00
2018-02-23T09:33:54.683Z,6.60
2018-02-23T09:38:57.764Z,6.47
2018-02-23T09:44:00.872Z,6.93
2018-02-23T09:49:03.957Z,6.53
2018-02-23T09:54:07.100Z,7.30
2018-02-23T09:59:10.175Z,7.30
2018-02-23T10:04:13.279Z,7.07
2018-02-23T10:09:17.147Z,6.70
2018-02-23T10:14:20.999Z,6.77
2018-02-23T10:19:25.216Z,6.90
2018-02-23T10:24:28.287Z,7.53
2018-02-23T10:29:31.381Z,7.47
2018-02-23T10:34:34.452Z,6.60
2018-02-23T10:39:38.295Z,6.43
2018-02-23T10:44:42.519Z,7.27
2018-02-23T10:49:45.588Z,7.60
2018-02-23T10:54:48.675Z,7.20
2018-02-23T10:59:52.563Z,8.52
2018-02-23T11:04:56.396Z,7.50
2018-02-23T11:09:59.876Z,7.60
2018-02-23T11:15:04.095Z,7.40
2018-02-23T11:20:08.311Z,7.23
2018-02-23T11:25:11.393Z,7.37
2018-02-23T11:30:14.483Z,7.40
2018-02-23T11:35:17.922Z,7.97
2018-02-23T11:40:21.766Z,7.93
2018-02-23T11:45:24.842Z,7.07
2018-02-23T11:50:28.184Z,7.83
2018-02-23T11:55:31.280Z,7.73
2018-02-23T12:00:34.349Z,7.57
2018-02-23T12:05:38.780Z,7.27
2018-02-23T12:10:43.013Z,8.23
2018-02-23T12:15:46.127Z,8.13
2018-02-23T12:20:49.972Z,8.00
2018-02-23T12:25:53.052Z,8.30
2018-02-23T12:30:57.491Z,8.47
2018-02-23T12:36:00.967Z,9.17
2018-02-23T12:41:04.810Z,8.17
2018-02-23T12:46:07.888Z,8.27
2018-02-23T12:51:11.029Z,9.10
2018-02-23T12:56:14.126Z,8.77
2018-02-23T13:01:17.204Z,9.63
2018-02-23T13:06:21.686Z,9.17
2018-02-23T13:11:24.782Z,8.47
2018-02-23T13:16:29.215Z,8.57
2018-02-23T13:21:33.815Z,9.60
2018-02-23T13:26:36.915Z,9.60
2018-02-23T13:31:41.151Z,9.33
2018-02-23T13:36:44.627Z,9.37
2018-02-23T13:41:48.103Z,9.00
2018-02-23T13:46:51.213Z,10.30
2018-02-23T13:51:55.070Z,10.13
2018-02-23T13:56:59.398Z,9.23
2018-02-23T14:02:03.257Z,9.53
2018-02-23T14:07:13.587Z,10.07
2018-02-23T14:12:18.011Z,10.20
2018-02-23T14:17:22.263Z,9.50
2018-02-23T14:22:25.351Z,9.67
2018-02-23T14:27:29.199Z,8.80
2018-02-23T14:32:32.644Z,10.00
2018-02-23T14:37:37.091Z,10.27
2018-02-23T14:42:41.326Z,9.17
2018-02-23T14:47:45.911Z,9.30
2018-02-23T14:52:50.408Z,8.20
2018-02-23T14:57:54.278Z,8.02
2018-02-23T15:02:57.376Z,8.50
2018-02-23T15:08:01.237Z,9.13
2018-02-23T15:13:05.100Z,8.30
2018-02-23T15:18:09.546Z,8.43
2018-02-23T15:23:14.554Z,7.95
2018-02-23T15:28:18.791Z,9.33
2018-02-23T15:33:22.680Z,9.40
2018-02-23T15:38:25.792Z,8.07
2018-02-23T15:43:29.632Z,8.70
2018-02-23T15:48:39.154Z,7.80
2018-02-23T15:53:43.735Z,8.20
2018-02-23T16:03:56.309Z,8.80
2018-02-23T16:09:00.520Z,8.80
2018-02-23T16:14:03.599Z,8.07
2018-02-23T16:19:06.677Z,7.23
2018-02-23T16:24:10.913Z,8.40
2018-02-23T16:29:15.384Z,8.43
2018-02-23T16:34:19.809Z,8.43
2018-02-23T16:39:22.896Z,8.97
2018-02-23T16:44:26.748Z,8.70
2018-02-23T16:49:29.839Z,9.20
2018-02-23T16:54:34.287Z,9.53
2018-02-23T16:59:38.887Z,9.13
2018-02-23T17:04:42.747Z,9.57
2018-02-23T17:09:45.869Z,10.53
2018-02-23T17:14:48.960Z,9.77
2018-02-23T17:19:52.811Z,10.32
2018-02-23T17:24:56.311Z,9.40
2018-02-23T17:30:00.899Z,8.70
2018-02-23T17:35:03.981Z,9.77
2018-02-23T17:40:07.072Z,9.93
2018-02-23T17:45:11.507Z,9.50
2018-02-23T17:50:14.641Z,9.13
2018-02-23T17:55:17.769Z,9.17
2018-02-23T18:00:21.299Z,9.43
2018-02-23T18:05:25.743Z,11.10
2018-02-23T18:10:29.217Z,8.82
2018-02-23T18:15:32.300Z,8.77
2018-02-23T18:20:35.380Z,8.27
2018-02-23T18:25:39.345Z,9.10
2018-02-23T18:30:43.569Z,9.57
2018-02-23T18:35:46.652Z,10.13
2018-02-23T18:40:50.867Z,9.52
2018-02-23T18:45:53.962Z,9.27
2018-02-23T18:50:58.395Z,9.60
2018-02-23T18:56:01.483Z,9.05
2018-02-23T19:01:04.597Z,10.00
2018-02-23T19:06:07.652Z,9.03
2018-02-23T19:11:11.527Z,11.57
2018-02-23T19:16:15.036Z,12.33
2018-02-23T19:21:18.132Z,10.93
2018-02-23T19:26:22.588Z,10.30
2018-02-23T19:31:25.711Z,9.82
2018-02-23T19:36:29.578Z,9.55
2018-02-23T19:41:34.003Z,9.27
2018-02-23T19:46:37.847Z,8.80
2018-02-23T19:51:41.698Z,8.87
2018-02-23T19:56:46.291Z,8.40
2018-02-23T20:01:49.396Z,7.60
2018-02-23T20:06:53.606Z,7.60
2018-02-23T20:11:56.713Z,8.07
2018-02-23T20:17:00.563Z,8.50
2018-02-23T20:22:04.779Z,7.20
2018-02-23T20:27:07.867Z,7.30
2018-02-23T20:32:11.709Z,8.50
2018-02-23T20:37:14.803Z,9.05
2018-02-23T20:42:18.670Z,8.60
2018-02-23T20:47:22.164Z,7.80
2018-02-23T20:52:25.260Z,8.20
2018-02-23T20:57:28.355Z,8.17
2018-02-23T21:02:31.844Z,8.50
2018-02-23T21:07:35.679Z,8.70
2018-02-23T21:12:38.761Z,8.83
2018-02-23T21:17:43.009Z,9.17
2018-02-23T21:22:46.835Z,8.80
2018-02-23T21:27:49.932Z,9.50
2018-02-23T21:32:54.383Z,9.53
2018-02-23T21:37:57.863Z,9.60
2018-02-23T21:43:02.299Z,10.75
2018-02-23T21:48:05.415Z,10.00
2018-02-23T21:53:08.496Z,10.33
2018-02-23T21:58:12.742Z,10.43
2018-02-23T22:03:16.968Z,11.63
2018-02-23T22:08:20.059Z,11.35
2018-02-23T22:13:24.498Z,12.00
2018-02-23T22:18:28.938Z,12.27
2018-02-23T22:23:32.436Z,14.20
2018-02-23T22:28:36.701Z,14.63
2018-02-23T22:33:41.542Z,14.98
2018-02-23T22:38:46.165Z,15.90
2018-02-23T22:43:49.260Z,15.37
2018-02-23T22:48:54.314Z,16.43
2018-02-23T22:53:58.166Z,16.60
2018-02-23T22:59:02.388Z,18.13
2018-02-23T23:04:06.847Z,17.50
2018-02-23T23:09:10.363Z,17.10
2018-02-23T23:14:13.462Z,16.63
2018-02-23T23:19:17.894Z,16.67
2018-02-23T23:24:22.132Z,15.67
2018-02-23T23:29:25.227Z,17.30
2018-02-23T23:34:29.694Z,18.47
2018-02-23T23:39:33.549Z,17.33
2018-02-23T23:44:38.012Z,17.03
2018-02-23T23:49:41.513Z,18.00
2018-02-23T23:54:46.173Z,17.27
2018-02-23T23:59:49.660Z,17.50
